Cactus Peak, Santa Catalina Island Weather observations

Data are for 10 minute period ending at time listed.
 Day   Time   Solar   Ave.   Ave.  Ave.  Vector    Max.   Stn.    Total
  of    of     Rad.   Air    Rel.  Wind   Wind     Wind   Baro.  Precip.
Year   Day            Temp.  Hum.  Speed  Dir.     Gust   Pres.         
2015   (PST)   W/m2    F      %     mph   deg.      mph    mb.     in.  
------------------------------------------------------------------------
 210    6:20   50.0    60   99.2     6    346.8     9.6    999.0   0.00  
 210    6:30   56.0    60   99.2     4      0.7     5.4    999.0   0.00  
 210    6:40   78.0    61   99.2     5    352.0     7.2    999.0   0.00  
 210    6:50   88.0    61   99.2     4    356.4     6.0    999.0   0.00  
 210    7:00  111.0    61   99.2     7    358.0    10.2    999.0   0.00  
 210    7:10  114.0    61   99.2     6    353.7     9.0    999.0   0.00  
 210    7:20  121.0    61   99.2     6    357.2     9.6    999.0   0.00  
 210    7:30  119.0    61   99.2     6      9.3     9.6    999.0   0.00  
 210    7:40  154.0    62   99.2     7      2.8    10.8    999.0   0.00  
 210    7:50  189.0    62   99.1     7    359.2     9.0    999.0   0.00  
 210    8:00  242.0    62   99.0     5      9.2     7.8    999.0   0.00  
 210    8:10  338.0    63   98.7     6     12.2     9.6    999.0   0.00  
 210    8:20  449.0    64   97.9     6      2.4     9.6    999.0   0.00  
 210    8:30  542.0    65   96.7     4     24.0     8.4    999.0   0.00  
 210    8:40  583.0    64   92.8     4    165.7     6.6    999.0   0.00  
 210    8:50  606.0    64   90.6     6    179.7     9.6    999.0   0.00  
 210    9:00  632.0    64   89.9     6    188.0     9.6    999.0   0.00  
 210    9:10  659.0    66   87.1     6    173.5    11.9    999.0   0.00  
 210    9:20  685.0    64   89.7     8    174.0    11.9    999.0   0.00  
 210    9:30  708.0    64   88.9     8    172.1    11.3    999.0   0.00  
 210    9:40  729.0    65   88.7     7    171.3    11.3    999.0   0.00  
 210    9:50  750.0    66   85.7     7    177.4    10.2    999.0   0.00  
 210   10:00  771.0    67   83.4     7    168.9    14.3    999.0   0.00  
 210   10:10  790.0    67   83.8     8    172.9    13.1    999.0   0.00  
 210   10:20  809.0    66   86.3     8    169.3    13.1    999.0   0.00  
 210   10:30  825.0    66   85.5     7    172.5    13.1    999.0   0.00  
 210   10:40  842.0    67   83.8     8    175.9    13.1    999.0   0.00  
 210   10:50  856.0    67   83.0     9    174.0    14.3    999.0   0.00  
 210   11:00  869.0    66   86.2    10    178.6    14.9    999.0   0.00  
 210   11:10  878.0    66   85.3     9    181.9    13.1    999.0   0.00  
 210   11:20  889.0    66   85.4     9    178.2    14.9    999.0   0.00  
 210   11:30  896.0    67   83.2     8    177.1    13.1    999.0   0.00  
 210   11:40  903.0    68   81.8     8    195.9    13.1    999.0   0.00  
 210   11:50  905.0    69   79.2     6    193.6    10.2    999.0   0.00  
 210   12:00  909.0    69   78.5     6    175.5    10.8    999.0   0.00  
 210   12:10  911.0    72   73.9     4    172.7     9.0    999.0   0.00  
 210   12:20  911.0    71   74.8     5    278.8     9.6    999.0   0.00  
 210   12:30  910.0    72   72.2     7    344.4    10.8    999.0   0.00  
 210   12:40  905.0    72   72.4     8    342.1    10.8    999.0   0.00  
 210   12:50  901.0    71   74.1     9    347.7    12.5    999.0   0.00  
 210   13:00  894.0    71   73.4     8    337.5    10.8    999.0   0.00  
 210   13:10  889.0    71   73.3     9    341.9    13.7    999.0   0.00  
 210   13:20  880.0    70   75.5    10    344.2    15.5    999.0   0.00  
 210   13:30  869.0    70   75.4    11    338.0    16.1    999.0   0.00  
 210   13:40  854.0    70   77.2    12    338.2    16.7    999.0   0.00  
 210   13:50  838.0    70   76.8    12    345.0    16.1    999.0   0.00  
 210   14:00  822.0    70   77.1    12    340.6    15.5    999.0   0.00  
 210   14:10  805.0    69   77.9    12    341.2    16.1    999.0   0.00  
 210   14:20  785.0    68   78.6    12    344.7    15.5    999.0   0.00  
 210   14:30  764.0    68   78.2    11    341.5    15.5    999.0   0.00  
 210   14:40  743.0    69   77.3    11    346.5    15.5    999.0   0.00  
 210   14:50  719.0    69   76.9    11    344.1    13.7    999.0   0.00  
 210   15:00  696.0    70   76.4    11    346.1    14.3    999.0   0.00  
 210   15:10  672.0    69   77.3    11    344.1    14.3    999.0   0.00  
 210   15:20  647.0    70   75.8    11    344.6    13.7    999.0   0.00  
 210   15:30  621.0    69   76.9    11    343.0    14.9    999.0   0.00  
 210   15:40  593.0    69   77.2    10    343.5    11.9    999.0   0.00  
 210   15:50  564.0    70   76.6     9    334.9    11.9    999.0   0.00  
 210   16:00  535.0    69   77.7    10    337.2    13.1    999.0   0.00  
 210   16:10  506.0    70   77.1     8    338.8    12.5    999.0   0.00  
 210   16:20  474.0    70   76.3     9    336.2    12.5    999.0   0.00  
 210   16:30  443.0    70   77.0     8    331.7    11.3    999.0   0.00  
 210   16:40  410.0    70   75.6     8    338.4     9.6    999.0   0.00  
 210   16:50  379.0    70   76.5     8    338.2    10.2    999.0   0.00  
 210   17:00  346.0    70   77.8     8    331.6    10.2    999.0   0.00  
 210   17:10  313.0    69   79.6     8    340.9     9.6    999.0   0.00  
 210   17:20  280.0    68   82.9     7    334.6    10.2    999.0   0.00  
 210   17:30  247.0    69   82.3     6    331.8     8.4    999.0   0.00  
 210   17:40  216.0    68   82.8     6    335.4     8.4    999.0   0.00  
 210   17:50  183.0    67   85.1     7    338.7     9.6    999.0   0.00  
 210   18:00  153.0    66   87.2     7    339.8     9.6    999.0   0.00  
 210   18:10  122.0    66   89.1     8    337.2     9.6    999.0   0.00  
 210   18:20   93.0    65   89.9     7    341.5     8.4    999.0   0.00  
 210   18:30   64.0    65   91.1     5    336.8     6.6    999.0   0.00  
 210   18:40   40.0    65   90.8     4    335.7     4.8    999.0   0.00  
 210   18:50   22.0    64   91.4     4    349.6     5.4    999.0   0.00  
 210   19:00    9.0    64   92.7     6    341.7     7.2    999.0   0.00  
 210   19:10    2.0    63   94.6     7    341.2     8.4    999.0   0.00  
 210   19:20    0.0    62   95.5     5    348.0     6.6    999.0   0.00  
 210   19:30    0.0    62   96.0     6    347.8     7.2    999.0   0.00  
 210   19:40    0.0    62   96.6     6    355.2     7.2    999.0   0.00  
 210   19:50    0.0    62   97.0     6    350.5     7.2    999.0   0.00  
 210   20:00    0.0    62   97.2     5    359.4     6.6    999.0   0.00  
 210   20:10    0.0    62   97.4     4    337.7     4.8    999.0   0.00  
 210   20:20    0.0    62   97.5     4    357.0     5.4    999.0   0.00  
 210   20:30    0.0    62   97.5     6    352.9     8.4    999.0   0.00  
 210   20:40    0.0    62   97.7     7    348.1     9.6    999.0   0.00  
 210   20:50    0.0    62   97.8     7    348.7     9.0    999.0   0.00  
 210   21:00    0.0    62   98.0     7    346.9     8.4    999.0   0.00  
 210   21:10    0.0    62   98.1     7    344.8     9.0    999.0   0.00  
 210   21:20    0.0    62   98.2     6    347.3     7.2    999.0   0.00  
 210   21:30    0.0    62   98.3     7    352.1     8.4    999.0   0.00  
 210   21:40    0.0    62   98.4     6    349.4     9.0    999.0   0.00  
 210   21:50    0.0    62   98.4     6    344.8     8.4    999.0   0.00  
 210   22:00    0.0    61   98.5     7    347.6     9.0    999.0   0.00  
 210   22:10    0.0    61   98.5     7    341.6     9.0    999.0   0.00  
 210   22:20    0.0    61   98.6     7    347.6     8.4    999.0   0.00  
 210   22:30    0.0    61   98.6     6    342.3     7.8    999.0   0.00  
 210   22:40    0.0    61   98.7     7    347.9     9.0    999.0   0.00  
 210   22:50    0.0    61   98.7     5    343.1     7.2    999.0   0.00  
 210   23:00    0.0    61   98.7     5    338.4     6.6    999.0   0.00  
 210   23:10    0.0    61   98.8     4    340.7     6.6    999.0   0.00  
 210   23:20    0.0    61   98.8     4    339.2     5.4    999.0   0.00  
 210   23:30    0.0    61   98.8     4    356.9     5.4    999.0   0.00  
 210   23:40    0.0    61   98.8     4      0.7     6.0    999.0   0.00  
 210   23:50    0.0    61   98.9     2    349.6     4.2    999.0   0.00  
 211    0:00    0.0    61   98.9     3    358.0     5.4    999.0   0.00  
 211    0:10    0.0    61   98.9     4      2.4     5.4    999.0   0.00  
 211    0:20    0.0    61   98.9     4    343.2     5.4    999.0   0.00  
 211    0:30    0.0    61   98.9     2    350.2     3.6    999.0   0.00  
 211    0:40    0.0    61   99.0     2    327.7     3.0    999.0   0.00  
 211    0:50    0.0    61   99.0     3    348.8     7.2    999.0   0.00  
 211    1:00    0.0    61   99.0     6    352.8     8.4    999.0   0.00  
 211    1:10    0.0    61   99.0     6    342.1     7.2    999.0   0.00  
 211    1:20    0.0    61   99.0     6    343.6     8.4    999.0   0.00  
 211    1:30    0.0    61   99.0     6    351.2     7.2    999.0   0.00  
 211    1:40    0.0    61   99.1     6    360.0     7.8    999.0   0.00  
 211    1:50    0.0    61   99.1     6    349.4     8.4    999.0   0.00  
 211    2:00    0.0    61   99.1     6      1.6     7.2    999.0   0.00  
 211    2:10    0.0    61   99.1     6      0.2     7.2    999.0   0.00  
 211    2:20    0.0    61   99.1     6      4.3     6.6    999.0   0.00  
 211    2:30    0.0    62   99.2     5     17.3     6.6    999.0   0.00  
 211    2:40    0.0    63   99.2     5     34.5     6.6    999.0   0.00  
 211    2:50    0.0    62   99.2     4      7.7     4.8    999.0   0.00  
 211    3:00    0.0    62   99.2     4    359.2     6.0    999.0   0.00  
 211    3:10    0.0    62   99.2     4    349.4     6.0    999.0   0.00  
 211    3:20    0.0    62   99.1     5    346.9     6.6    999.0   0.00  
 211    3:30    0.0    61   99.1     5    341.7     6.0    999.0   0.00  
 211    3:40    0.0    61   99.2     4    344.2     5.4    999.0   0.00  
 211    3:50    0.0    62   99.2     4    344.3     6.6    999.0   0.00  
 211    4:00    0.0    63   99.3     6     35.3     9.0    999.0   0.00  
 211    4:10    0.0    63   99.2     6     25.2     8.4    999.0   0.00  
 211    4:20    0.0    64   99.1     6     35.9     7.2    999.0   0.00  
 211    4:30    0.0    63   98.9     5     24.1     6.0    999.0   0.00  
 211    4:40    0.0    63   98.7     5      3.5     6.0    999.0   0.00  
 211    4:50    0.0    62   98.8     5    336.5     6.0    999.0   0.00  
 211    5:00    0.0    62   98.9     4    344.4     5.4    999.0   0.00  
 211    5:10    0.0    62   99.0     4    346.8     4.8    999.0   0.00  
 211    5:20    6.0    62   99.0     4    349.9     4.8    999.0   0.00  
 211    5:30    7.0    62   99.1     5    342.2     6.6    999.0   0.00  
 211    5:40   12.0    62   99.1     6    344.5     6.6    999.0   0.00  
 211    5:50   27.0    62   99.1     6    348.4     7.2    999.0   0.00  
 211    6:00   40.0    62   99.2     5    339.7     6.6    999.0   0.00  
 211    6:10   23.0    62   99.1     6    351.5     7.8    999.0   0.00  

Return to Cactus Peak graphs page.


Western Regional Climate Center,wrcc@dri.edu